createdAt,value
2018-09-03T00:00:26.598Z,27.67
2018-09-03T00:01:06.347Z,27.68
2018-09-03T00:01:46.496Z,27.68
2018-09-03T00:02:25.835Z,27.70
2018-09-03T00:03:04.411Z,27.73
2018-09-03T00:03:43.638Z,27.74
2018-09-03T00:04:23.223Z,27.78
2018-09-03T00:05:02.037Z,27.79
2018-09-03T00:05:40.733Z,27.81
2018-09-03T00:06:20.115Z,27.82
2018-09-03T00:06:58.976Z,27.84
2018-09-03T00:07:37.704Z,27.86
2018-09-03T00:08:18.265Z,27.90
2018-09-03T00:08:56.963Z,27.94
2018-09-03T00:09:40.076Z,27.97
2018-09-03T00:10:20.529Z,28.00
2018-09-03T00:10:59.270Z,28.05
2018-09-03T00:11:39.776Z,28.10
2018-09-03T00:12:19.166Z,28.13
2018-09-03T00:12:58.050Z,28.17
2018-09-03T00:13:36.843Z,28.23
2018-09-03T00:14:17.485Z,28.29
2018-09-03T00:14:56.539Z,28.33
2018-09-03T00:15:35.803Z,28.41
2018-09-03T00:16:14.469Z,28.46
2018-09-03T00:16:53.209Z,28.52
2018-09-03T00:17:32.850Z,28.58
2018-09-03T00:18:11.572Z,28.64
2018-09-03T00:18:50.768Z,28.71
2018-09-03T00:19:29.392Z,28.76
2018-09-03T00:20:08.214Z,28.82
2018-09-03T00:20:48.650Z,28.88
2018-09-03T00:21:29.763Z,28.93
2018-09-03T00:22:08.454Z,29.00
2018-09-03T00:22:47.529Z,29.06
2018-09-03T00:23:26.689Z,29.14
2018-09-03T00:24:05.667Z,29.20
2018-09-03T00:24:44.414Z,29.26
2018-09-03T00:25:24.510Z,29.33
2018-09-03T00:26:03.251Z,29.39
2018-09-03T00:26:42.339Z,29.47
2018-09-03T00:27:21.481Z,29.54
2018-09-03T00:28:42.985Z,29.71
2018-09-03T00:29:22.046Z,29.78
2018-09-03T00:30:00.982Z,29.87
2018-09-03T00:30:39.807Z,29.94
2018-09-03T00:31:23.434Z,30.00
2018-09-03T00:32:07.415Z,30.08
2018-09-03T00:32:50.456Z,30.14
2018-09-03T00:33:32.976Z,30.22
2018-09-03T00:34:15.631Z,30.24
2018-09-03T00:34:58.264Z,30.32
2018-09-03T00:35:40.989Z,30.38
2018-09-03T00:36:23.789Z,30.40
2018-09-03T00:37:06.775Z,30.52
2018-09-03T00:37:51.037Z,30.57
2018-09-03T00:38:34.722Z,30.63
2018-09-03T00:39:17.363Z,30.68
2018-09-03T00:39:59.985Z,30.73
2018-09-03T00:40:42.557Z,30.79
2018-09-03T00:41:25.053Z,30.88
2018-09-03T00:42:06.963Z,30.92
2018-09-03T00:42:49.347Z,30.98
2018-09-03T00:43:31.534Z,31.04
2018-09-03T00:44:13.701Z,31.09
2018-09-03T00:44:55.599Z,31.14
2018-09-03T00:45:37.734Z,31.16
2018-09-03T00:46:20.185Z,31.22
2018-09-03T00:46:59.786Z,31.28
2018-09-03T00:47:37.827Z,31.31
2018-09-03T00:48:16.660Z,31.37
2018-09-03T00:48:54.677Z,31.39
2018-09-03T00:49:33.500Z,31.45
2018-09-03T00:50:11.555Z,31.49
2018-09-03T00:50:49.625Z,31.53
2018-09-03T00:51:27.489Z,31.54
2018-09-03T00:52:05.369Z,31.59
2018-09-03T00:52:43.727Z,31.61
2018-09-03T00:53:21.736Z,31.64
2018-09-03T00:53:59.760Z,31.68
2018-09-03T00:54:38.897Z,31.73
2018-09-03T00:55:16.929Z,31.76
2018-09-03T00:55:54.938Z,31.78
2018-09-03T00:56:32.957Z,31.83
2018-09-03T00:57:11.112Z,31.86
2018-09-03T00:57:50.637Z,31.88
2018-09-03T00:58:29.049Z,31.89
2018-09-03T00:59:07.115Z,31.94
2018-09-03T00:59:45.388Z,31.99
2018-09-03T01:00:23.376Z,32.04
2018-09-03T01:01:01.367Z,32.08
2018-09-03T01:01:39.441Z,32.11
2018-09-03T01:02:17.385Z,32.19
2018-09-03T01:02:55.300Z,32.23
2018-09-03T01:03:33.315Z,32.27
2018-09-03T01:04:11.491Z,32.31
2018-09-03T01:04:49.444Z,32.34
2018-09-03T01:05:27.408Z,32.38
2018-09-03T01:06:05.482Z,32.44
2018-09-03T01:06:43.445Z,32.50
2018-09-03T01:07:21.501Z,32.52
2018-09-03T01:07:59.548Z,32.53
2018-09-03T01:08:37.559Z,32.59
2018-09-03T01:09:15.639Z,32.63
2018-09-03T01:09:53.889Z,32.70
2018-09-03T01:10:32.144Z,32.73
2018-09-03T01:11:10.718Z,32.74
2018-09-03T01:11:48.940Z,32.78
2018-09-03T01:12:27.004Z,32.86
2018-09-03T01:13:05.037Z,32.89
2018-09-03T01:13:44.796Z,32.91
2018-09-03T01:14:22.715Z,32.91
2018-09-03T01:15:00.776Z,32.94
2018-09-03T01:15:38.764Z,32.97
2018-09-03T01:16:17.297Z,32.95
2018-09-03T01:16:55.211Z,32.91
2018-09-03T01:17:33.196Z,32.81
2018-09-03T01:18:11.240Z,32.71
2018-09-03T01:18:49.633Z,32.64
2018-09-03T01:19:27.701Z,32.64
2018-09-03T01:20:05.692Z,32.71
2018-09-03T01:20:43.779Z,32.75
2018-09-03T01:21:21.904Z,32.88
2018-09-03T01:21:59.972Z,32.98
2018-09-03T01:22:37.833Z,33.08
2018-09-03T01:23:15.691Z,33.20
2018-09-03T01:23:53.836Z,33.30
2018-09-03T01:24:31.828Z,33.36
2018-09-03T01:25:09.841Z,33.44
2018-09-03T01:25:47.867Z,33.45
2018-09-03T01:26:25.927Z,33.37
2018-09-03T01:27:03.784Z,33.31
2018-09-03T01:27:42.174Z,33.34
2018-09-03T01:28:20.401Z,33.45
2018-09-03T01:28:58.464Z,33.58
2018-09-03T01:29:36.466Z,33.64
2018-09-03T01:30:14.593Z,33.56
2018-09-03T01:30:52.616Z,33.56
2018-09-03T01:31:30.565Z,33.48
2018-09-03T01:32:10.397Z,33.27
2018-09-03T01:32:48.432Z,33.14
2018-09-03T01:33:26.427Z,33.01
2018-09-03T01:34:04.469Z,32.90
2018-09-03T01:34:42.505Z,32.84
2018-09-03T01:35:20.516Z,32.78
2018-09-03T01:35:58.548Z,32.69
2018-09-03T01:36:36.642Z,32.65
2018-09-03T01:37:14.663Z,32.61
2018-09-03T01:37:52.624Z,32.56
2018-09-03T01:38:30.580Z,32.49
2018-09-03T01:39:10.373Z,32.37
2018-09-03T01:39:48.379Z,32.39
2018-09-03T01:40:26.243Z,32.36
2018-09-03T01:41:04.244Z,32.32
2018-09-03T01:41:42.260Z,32.25
2018-09-03T01:42:21.493Z,32.19
2018-09-03T01:43:06.777Z,32.09
2018-09-03T01:43:45.077Z,32.04
2018-09-03T01:44:23.034Z,31.96
2018-09-03T01:45:01.168Z,31.94
2018-09-03T01:45:39.188Z,31.88
2018-09-03T01:46:17.219Z,31.84
2018-09-03T01:46:55.184Z,31.81
2018-09-03T01:47:33.241Z,31.80
2018-09-03T01:48:11.372Z,31.81
2018-09-03T01:48:49.449Z,31.90
2018-09-03T01:49:28.769Z,32.07
2018-09-03T01:50:06.678Z,32.26
2018-09-03T01:50:44.846Z,32.46
2018-09-03T01:51:22.744Z,32.67
2018-09-03T01:52:00.835Z,32.87
2018-09-03T01:52:38.812Z,32.97
2018-09-03T01:53:16.956Z,33.07
2018-09-03T01:53:54.887Z,33.21
2018-09-03T01:54:32.915Z,33.37
2018-09-03T01:55:10.951Z,33.49
2018-09-03T01:55:48.926Z,33.65
2018-09-03T01:56:26.949Z,33.75
2018-09-03T01:57:04.831Z,33.85
2018-09-03T01:57:42.705Z,33.93
2018-09-03T01:58:20.679Z,33.99
2018-09-03T01:58:58.720Z,34.14
2018-09-03T01:59:36.680Z,34.24
2018-09-03T02:00:15.510Z,34.32
2018-09-03T02:00:53.724Z,34.38
2018-09-03T02:01:31.913Z,34.45
2018-09-03T02:02:09.922Z,34.54
2018-09-03T02:02:47.934Z,34.65
2018-09-03T02:03:26.333Z,34.73
2018-09-03T02:04:04.267Z,34.84
2018-09-03T02:04:42.385Z,34.93
2018-09-03T02:05:20.349Z,35.02
2018-09-03T02:05:58.339Z,34.92
2018-09-03T02:06:36.274Z,35.00
2018-09-03T02:07:14.304Z,35.11
2018-09-03T02:07:52.662Z,35.15
2018-09-03T02:08:30.988Z,35.23
2018-09-03T02:09:13.637Z,35.25
2018-09-03T02:09:51.636Z,35.32
2018-09-03T02:10:29.733Z,35.35
2018-09-03T02:11:07.649Z,35.42
2018-09-03T02:11:46.585Z,35.48
2018-09-03T02:12:25.298Z,35.51
2018-09-03T02:13:03.842Z,35.56
2018-09-03T02:13:41.977Z,35.60
2018-09-03T02:14:19.995Z,35.63
2018-09-03T02:14:57.968Z,35.70
2018-09-03T02:15:36.171Z,35.72
2018-09-03T02:16:14.160Z,35.79
2018-09-03T02:16:52.787Z,35.72
2018-09-03T02:17:31.642Z,35.59
2018-09-03T02:18:09.592Z,35.49
2018-09-03T02:18:47.597Z,35.41
2018-09-03T02:19:27.195Z,35.32
2018-09-03T02:20:05.058Z,35.25
2018-09-03T02:20:43.269Z,35.17
2018-09-03T02:21:21.437Z,35.16
2018-09-03T02:21:59.352Z,35.11
2018-09-03T02:22:37.380Z,35.05
2018-09-03T02:23:15.469Z,35.03
2018-09-03T02:23:53.522Z,34.95
2018-09-03T02:24:31.546Z,34.98
2018-09-03T02:25:23.530Z,35.00
2018-09-03T02:26:01.529Z,35.04
2018-09-03T02:26:39.704Z,35.14
2018-09-03T02:27:17.903Z,35.20
2018-09-03T02:27:55.895Z,35.31
2018-09-03T02:28:33.892Z,35.42
2018-09-03T02:29:11.829Z,35.49
2018-09-03T02:29:49.885Z,35.41
2018-09-03T02:30:28.136Z,35.24
2018-09-03T02:31:06.111Z,35.09
2018-09-03T02:31:44.094Z,35.18
2018-09-03T02:32:22.168Z,35.17
2018-09-03T02:33:00.125Z,35.16
2018-09-03T02:33:38.868Z,35.06
2018-09-03T02:34:16.863Z,34.95
2018-09-03T02:34:55.135Z,35.00
2018-09-03T02:35:33.131Z,35.17
2018-09-03T02:36:11.053Z,35.35
2018-09-03T02:36:49.275Z,35.50
2018-09-03T02:37:27.197Z,35.63
2018-09-03T02:38:05.293Z,35.74
2018-09-03T02:38:43.643Z,35.88
2018-09-03T02:39:21.922Z,35.95
2018-09-03T02:40:00.042Z,36.02
2018-09-03T02:40:38.042Z,36.13
2018-09-03T02:41:16.045Z,36.17
2018-09-03T02:41:54.511Z,36.25
2018-09-03T02:42:32.566Z,36.26
2018-09-03T02:43:10.749Z,36.29
2018-09-03T02:43:48.727Z,36.31
2018-09-03T02:44:27.748Z,36.09
2018-09-03T02:45:05.900Z,35.89
2018-09-03T02:45:44.799Z,35.75
2018-09-03T02:46:22.909Z,35.59
2018-09-03T02:47:00.857Z,35.47
2018-09-03T02:47:38.829Z,35.33
2018-09-03T02:48:17.268Z,35.26
2018-09-03T02:48:55.228Z,35.19
2018-09-03T02:49:33.307Z,35.10
2018-09-03T02:50:11.405Z,34.99
2018-09-03T02:50:49.407Z,34.89
2018-09-03T02:51:27.369Z,34.93
2018-09-03T02:52:06.238Z,34.92
2018-09-03T02:52:45.350Z,34.89
2018-09-03T02:53:23.303Z,34.95
2018-09-03T02:54:01.292Z,35.20
2018-09-03T02:54:41.054Z,35.35
2018-09-03T02:55:19.036Z,35.43
2018-09-03T02:55:57.044Z,35.47
2018-09-03T02:56:35.047Z,35.59
2018-09-03T02:57:13.136Z,35.72
2018-09-03T02:57:51.237Z,35.88
2018-09-03T02:58:29.325Z,36.04
2018-09-03T02:59:07.319Z,36.21
2018-09-03T02:59:45.725Z,36.35
2018-09-03T03:00:27.736Z,36.49
2018-09-03T03:01:05.811Z,36.65
2018-09-03T03:01:43.850Z,36.73
2018-09-03T03:02:35.701Z,36.88
2018-09-03T03:03:27.452Z,36.99
2018-09-03T03:04:05.405Z,37.03
2018-09-03T03:04:43.374Z,37.06
2018-09-03T03:05:21.365Z,37.18
2018-09-03T03:05:59.694Z,37.17
2018-09-03T03:06:38.621Z,36.94
2018-09-03T03:07:16.801Z,36.77
2018-09-03T03:07:55.328Z,36.59
2018-09-03T03:08:33.271Z,36.45
2018-09-03T03:09:12.414Z,36.26
2018-09-03T03:09:50.564Z,36.11
2018-09-03T03:10:28.929Z,36.02
2018-09-03T03:11:07.218Z,35.90
2018-09-03T03:11:45.322Z,35.79
2018-09-03T03:12:26.889Z,35.69
2018-09-03T03:13:04.832Z,35.55
2018-09-03T03:13:43.772Z,35.46
2018-09-03T03:14:21.803Z,35.39
2018-09-03T03:15:01.437Z,35.30
2018-09-03T03:15:39.635Z,35.20
2018-09-03T03:16:17.788Z,35.11
2018-09-03T03:16:55.769Z,34.99
2018-09-03T03:17:33.729Z,34.91
2018-09-03T03:18:11.770Z,34.80
2018-09-03T03:18:50.056Z,34.69
2018-09-03T03:19:28.126Z,34.65
2018-09-03T03:20:06.483Z,34.57
2018-09-03T03:20:44.486Z,34.47
2018-09-03T03:21:22.513Z,34.41
2018-09-03T03:22:00.550Z,34.30
2018-09-03T03:22:38.554Z,34.22
2018-09-03T03:23:16.857Z,34.12
2018-09-03T03:23:55.090Z,34.03
2018-09-03T03:24:33.254Z,33.91
2018-09-03T03:25:11.361Z,33.86
2018-09-03T03:25:49.328Z,33.74
2018-09-03T03:26:28.187Z,33.58
2018-09-03T03:27:06.189Z,33.49
2018-09-03T03:27:44.201Z,33.41
2018-09-03T03:28:22.262Z,33.32
2018-09-03T03:29:00.463Z,33.20
2018-09-03T03:29:38.471Z,33.15
2018-09-03T03:30:17.023Z,32.99
2018-09-03T03:30:55.048Z,32.91
2018-09-03T03:31:33.047Z,32.84
2018-09-03T03:32:11.119Z,32.70
2018-09-03T03:32:51.829Z,32.60
2018-09-03T03:33:29.731Z,32.48
2018-09-03T03:34:07.772Z,32.37
2018-09-03T03:34:45.981Z,32.35
2018-09-03T03:35:24.068Z,32.29
2018-09-03T03:36:02.046Z,32.17
2018-09-03T03:36:40.175Z,32.06
2018-09-03T03:37:19.269Z,32.00
2018-09-03T03:37:57.199Z,31.91
2018-09-03T03:38:35.240Z,31.88
2018-09-03T03:39:13.263Z,31.82
2018-09-03T03:39:51.333Z,31.77
2018-09-03T03:40:29.496Z,31.68
2018-09-03T03:41:07.547Z,31.63
2018-09-03T03:41:45.644Z,31.61
2018-09-03T03:42:23.604Z,31.57
2018-09-03T03:43:01.492Z,31.50
2018-09-03T03:43:39.632Z,31.50
2018-09-03T03:44:17.613Z,31.45
2018-09-03T03:44:55.565Z,31.40
2018-09-03T03:45:33.542Z,31.36
2018-09-03T03:46:11.675Z,31.30
2018-09-03T03:46:49.698Z,31.21
2018-09-03T03:47:27.762Z,31.17
2018-09-03T03:48:05.724Z,31.14
2018-09-03T03:48:44.080Z,31.06
2018-09-03T03:49:22.287Z,30.95
2018-09-03T03:50:00.585Z,30.88
2018-09-03T03:50:38.572Z,30.89
2018-09-03T03:51:16.561Z,30.88
2018-09-03T03:51:54.581Z,30.88
2018-09-03T03:52:32.618Z,30.85
2018-09-03T03:53:10.596Z,30.85
2018-09-03T03:53:48.776Z,30.89
2018-09-03T03:54:26.879Z,30.92
2018-09-03T03:55:05.682Z,30.98
2018-09-03T03:55:43.759Z,31.00
2018-09-03T03:56:21.881Z,31.06
2018-09-03T03:56:59.986Z,31.14
2018-09-03T03:57:38.499Z,31.22
2018-09-03T03:58:17.204Z,31.43
2018-09-03T03:58:55.395Z,31.71
2018-09-03T03:59:33.624Z,31.96
2018-09-03T04:00:12.290Z,32.22
2018-09-03T04:00:50.589Z,32.28
2018-09-03T04:01:28.572Z,32.26
2018-09-03T04:02:06.673Z,32.19
2018-09-03T04:02:44.724Z,32.14
2018-09-03T04:03:22.729Z,32.05
2018-09-03T04:04:00.973Z,31.99
2018-09-03T04:04:39.026Z,31.93
2018-09-03T04:05:17.352Z,31.92
2018-09-03T04:05:55.503Z,31.89
2018-09-03T04:06:33.636Z,31.95
2018-09-03T04:07:11.879Z,32.04
2018-09-03T04:07:49.999Z,32.10
2018-09-03T04:08:28.061Z,32.12
2018-09-03T04:09:07.009Z,32.16
2018-09-03T04:09:45.013Z,32.15
2018-09-03T04:10:23.274Z,32.11
2018-09-03T04:11:01.261Z,32.13
2018-09-03T04:11:39.696Z,32.12
2018-09-03T04:12:17.734Z,32.08
2018-09-03T04:13:00.502Z,32.08
2018-09-03T04:13:38.693Z,32.02
2018-09-03T04:14:16.960Z,32.02
2018-09-03T04:14:54.979Z,31.98
2018-09-03T04:15:33.193Z,31.91
2018-09-03T04:16:11.200Z,31.89
2018-09-03T04:16:49.148Z,31.88
2018-09-03T04:17:27.559Z,31.92
2018-09-03T04:18:06.346Z,31.96
2018-09-03T04:18:44.471Z,31.87
2018-09-03T04:19:22.543Z,31.85
2018-09-03T04:20:05.837Z,31.76
2018-09-03T04:20:44.879Z,31.82
2018-09-03T04:21:22.906Z,31.79
2018-09-03T04:22:01.179Z,31.78
2018-09-03T04:22:40.322Z,31.74
2018-09-03T04:23:18.512Z,31.67
2018-09-03T04:23:56.536Z,31.62
2018-09-03T04:24:34.904Z,31.55
2018-09-03T04:25:13.155Z,31.50
2018-09-03T04:25:51.194Z,31.41
2018-09-03T04:26:29.261Z,31.36
2018-09-03T04:27:07.461Z,31.28
2018-09-03T04:27:45.460Z,31.21
2018-09-03T04:28:23.621Z,31.18
2018-09-03T04:29:01.815Z,31.13
2018-09-03T04:29:39.772Z,31.14
2018-09-03T04:30:18.842Z,31.15
2018-09-03T04:30:57.147Z,31.15
2018-09-03T04:31:35.408Z,31.16
2018-09-03T04:32:16.337Z,31.09
2018-09-03T04:32:54.537Z,31.08
2018-09-03T04:33:32.654Z,31.09
2018-09-03T04:34:10.688Z,31.05
2018-09-03T04:34:49.105Z,31.03
2018-09-03T04:35:27.128Z,31.00
2018-09-03T04:36:06.357Z,30.97
2018-09-03T04:36:44.557Z,30.93
2018-09-03T04:37:22.604Z,30.92
2018-09-03T04:38:00.631Z,30.94
2018-09-03T04:38:38.717Z,30.93
2018-09-03T04:39:16.860Z,30.88
2018-09-03T04:39:55.063Z,30.86
2018-09-03T04:40:33.290Z,30.77
2018-09-03T04:41:11.311Z,30.73
2018-09-03T04:41:49.389Z,30.74
2018-09-03T04:42:27.530Z,30.66
2018-09-03T04:43:05.505Z,30.67
2018-09-03T04:43:43.435Z,30.62
2018-09-03T04:44:21.372Z,30.57
2018-09-03T04:44:59.361Z,30.54
2018-09-03T04:45:37.466Z,30.42
2018-09-03T04:49:32.363Z,30.02
2018-09-03T04:50:10.347Z,29.93
2018-09-03T04:50:48.341Z,29.93
2018-09-03T04:51:26.406Z,29.88
2018-09-03T04:52:04.437Z,29.84
2018-09-03T04:52:42.594Z,29.77
2018-09-03T04:53:20.701Z,29.76
2018-09-03T04:53:58.729Z,29.74
2018-09-03T04:54:37.080Z,29.68
2018-09-03T04:55:15.385Z,29.66
2018-09-03T04:55:53.604Z,29.61
2018-09-03T04:56:31.631Z,29.53
2018-09-03T04:57:09.712Z,29.52
2018-09-03T04:57:48.501Z,29.52
2018-09-03T04:58:26.658Z,29.53
2018-09-03T04:59:04.685Z,29.50
2018-09-03T04:59:42.884Z,29.46
2018-09-03T05:00:20.966Z,29.44
2018-09-03T05:00:59.073Z,29.41
2018-09-03T05:01:37.267Z,29.37
2018-09-03T05:02:15.200Z,29.40
2018-09-03T05:02:54.273Z,29.40
2018-09-03T05:03:32.292Z,29.39
2018-09-03T05:04:10.203Z,29.38
2018-09-03T05:04:49.406Z,29.34
2018-09-03T05:05:27.827Z,29.32
2018-09-03T05:06:05.981Z,29.32
2018-09-03T05:06:44.153Z,29.27
2018-09-03T05:07:22.238Z,29.21
2018-09-03T05:08:00.217Z,29.16
2018-09-03T05:08:38.191Z,29.11
2018-09-03T05:09:16.117Z,29.08
2018-09-03T05:10:24.029Z,29.07
2018-09-03T05:11:02.128Z,29.04
2018-09-03T05:11:40.324Z,29.03
2018-09-03T05:12:18.458Z,28.99
2018-09-03T05:12:56.636Z,28.99
2018-09-03T05:13:34.700Z,28.97
2018-09-03T05:14:12.785Z,29.00
2018-09-03T05:14:50.868Z,28.99
2018-09-03T05:15:28.981Z,29.01
2018-09-03T05:16:07.398Z,29.01
2018-09-03T05:16:45.460Z,28.99
2018-09-03T05:17:23.585Z,29.00
2018-09-03T05:18:01.846Z,29.03
2018-09-03T05:18:39.869Z,29.02
2018-09-03T05:19:17.771Z,29.04
2018-09-03T05:19:55.852Z,29.06
2018-09-03T05:20:34.348Z,29.09
2018-09-03T05:21:12.513Z,29.12
2018-09-03T05:21:50.580Z,29.17
2018-09-03T05:22:28.681Z,29.20
2018-09-03T05:23:48.815Z,29.23
2018-09-03T05:24:26.887Z,29.23
2018-09-03T05:25:05.320Z,29.25
2018-09-03T05:25:43.233Z,29.28
2018-09-03T05:26:21.532Z,29.30
2018-09-03T05:26:59.583Z,29.33
2018-09-03T05:27:37.536Z,29.34
2018-09-03T05:28:16.611Z,29.35
2018-09-03T05:28:54.525Z,29.32
2018-09-03T05:29:32.617Z,29.33
2018-09-03T05:30:11.674Z,29.30
2018-09-03T05:30:50.367Z,29.25
2018-09-03T05:31:28.479Z,29.19
2018-09-03T05:32:06.571Z,29.15
2018-09-03T05:32:44.588Z,29.14
2018-09-03T05:33:22.571Z,29.09
2018-09-03T05:34:00.859Z,29.08
2018-09-03T05:34:38.961Z,29.04
2018-09-03T05:35:17.181Z,28.99
2018-09-03T05:35:55.255Z,28.96
2018-09-03T05:36:33.360Z,28.96
2018-09-03T05:37:11.348Z,28.99
2018-09-03T05:37:49.374Z,29.00
2018-09-03T05:38:27.661Z,28.99
2018-09-03T05:39:06.549Z,28.98
2018-09-03T05:39:44.602Z,28.99
2018-09-03T05:40:29.496Z,28.99
2018-09-03T05:41:07.453Z,29.01
2018-09-03T05:41:45.412Z,29.02
2018-09-03T05:42:23.472Z,29.07
2018-09-03T05:43:01.481Z,29.03
2018-09-03T05:43:39.623Z,29.05
2018-09-03T05:44:17.845Z,29.04
2018-09-03T05:44:55.925Z,29.08
2018-09-03T05:45:33.859Z,29.09
2018-09-03T05:46:11.941Z,29.08
2018-09-03T05:46:50.223Z,29.12
2018-09-03T05:47:28.213Z,29.13
2018-09-03T05:48:06.164Z,29.17
2018-09-03T05:48:44.223Z,29.15
2018-09-03T05:49:22.510Z,29.16
2018-09-03T05:50:00.639Z,29.21
2018-09-03T05:50:38.656Z,29.21
2018-09-03T05:51:17.770Z,29.24
2018-09-03T05:51:55.691Z,29.30
2018-09-03T05:52:33.799Z,29.32
2018-09-03T05:53:11.780Z,29.35
2018-09-03T05:53:49.762Z,29.39
2018-09-03T05:54:27.800Z,29.42
2018-09-03T05:55:05.885Z,29.45
2018-09-03T05:55:43.924Z,29.49
2018-09-03T05:56:21.912Z,29.52
2018-09-03T05:56:59.884Z,29.55
2018-09-03T05:57:38.761Z,29.57
2018-09-03T05:58:17.219Z,29.58
2018-09-03T05:58:55.180Z,29.60
2018-09-03T05:59:33.211Z,29.62
2018-09-03T06:00:13.364Z,29.61
2018-09-03T06:00:51.336Z,29.61
2018-09-03T06:01:29.429Z,29.56
2018-09-03T06:02:08.662Z,29.57
2018-09-03T06:02:46.628Z,29.52
2018-09-03T06:03:24.753Z,29.48
2018-09-03T06:04:02.948Z,29.49
2018-09-03T06:04:41.050Z,29.51
2018-09-03T06:05:19.188Z,29.53
2018-09-03T06:05:57.243Z,29.54
2018-09-03T06:06:35.251Z,29.57
2018-09-03T06:07:13.285Z,29.59
2018-09-03T06:07:51.316Z,29.61
2018-09-03T06:08:29.338Z,29.64
2018-09-03T06:09:07.737Z,29.66
2018-09-03T06:09:45.763Z,29.69
2018-09-03T06:10:23.815Z,29.72
2018-09-03T06:11:02.067Z,29.75
2018-09-03T06:11:40.086Z,29.77
2018-09-03T06:12:18.305Z,29.78
2018-09-03T06:12:56.320Z,29.83
2018-09-03T06:13:34.808Z,29.85
2018-09-03T06:14:13.043Z,29.89
2018-09-03T06:14:51.077Z,29.92
2018-09-03T06:15:29.246Z,29.93
2018-09-03T06:16:07.370Z,29.97
2018-09-03T06:16:45.382Z,30.00
2018-09-03T06:17:23.486Z,30.03
2018-09-03T06:18:01.830Z,30.06
2018-09-03T06:18:39.760Z,30.09
2018-09-03T06:19:17.918Z,30.13
2018-09-03T06:19:55.836Z,30.14
2018-09-03T06:20:33.959Z,30.18
2018-09-03T06:21:12.234Z,30.21
2018-09-03T06:21:50.308Z,30.22
2018-09-03T06:22:28.459Z,30.24
2018-09-03T06:23:06.467Z,30.26
2018-09-03T06:23:44.478Z,30.29
2018-09-03T06:24:22.430Z,30.31
2018-09-03T06:25:00.536Z,30.33
2018-09-03T06:25:38.611Z,30.36
2018-09-03T06:26:16.587Z,30.38
2018-09-03T06:26:54.602Z,30.42
2018-09-03T06:27:32.617Z,30.43
2018-09-03T06:28:10.589Z,30.44
2018-09-03T06:28:48.622Z,30.42
2018-09-03T06:29:26.769Z,30.48
2018-09-03T06:30:04.786Z,30.51
2018-09-03T06:30:42.790Z,30.54
2018-09-03T06:31:20.885Z,30.58
2018-09-03T06:31:58.989Z,30.59
2018-09-03T06:32:37.052Z,30.61
2018-09-03T06:33:16.051Z,30.61
2018-09-03T06:33:55.030Z,30.60
2018-09-03T06:34:33.060Z,30.64
2018-09-03T06:35:11.187Z,30.67
2018-09-03T06:35:49.108Z,30.70
2018-09-03T06:36:27.132Z,30.74
2018-09-03T06:37:05.108Z,30.76
2018-09-03T06:37:43.071Z,30.80
2018-09-03T06:38:21.180Z,30.84
2018-09-03T06:38:59.343Z,30.85
2018-09-03T06:39:37.325Z,30.90
2018-09-03T06:40:15.307Z,30.92
2018-09-03T06:40:53.316Z,30.96
2018-09-03T06:41:31.407Z,30.99
2018-09-03T06:42:10.561Z,30.94
2018-09-03T06:42:48.585Z,31.01
2018-09-03T06:43:26.600Z,31.04
2018-09-03T06:44:04.570Z,31.07
2018-09-03T06:44:42.723Z,31.09
2018-09-03T06:45:20.681Z,31.10
2018-09-03T06:45:59.496Z,31.10
2018-09-03T06:46:37.462Z,31.16
2018-09-03T06:47:16.093Z,31.21
2018-09-03T06:47:54.069Z,31.24
2018-09-03T06:48:32.035Z,31.26
2018-09-03T06:49:09.942Z,31.29
2018-09-03T06:49:48.014Z,31.31
2018-09-03T06:50:26.565Z,31.34
2018-09-03T06:51:04.460Z,31.36
2018-09-03T06:51:42.729Z,31.42
2018-09-03T06:52:25.227Z,31.45
2018-09-03T06:53:03.217Z,31.49
2018-09-03T06:53:41.306Z,31.53
2018-09-03T06:54:19.419Z,31.55
2018-09-03T06:54:57.398Z,31.60
2018-09-03T06:55:35.292Z,31.63
2018-09-03T06:56:13.233Z,31.66
2018-09-03T06:56:51.338Z,31.69
2018-09-03T06:57:29.319Z,31.72
2018-09-03T06:58:07.412Z,31.75
2018-09-03T06:58:45.594Z,31.79
2018-09-03T06:59:25.000Z,31.80
2018-09-03T07:00:02.955Z,31.83
2018-09-03T07:00:41.010Z,31.88
2018-09-03T07:01:19.008Z,31.90
2018-09-03T07:01:57.058Z,31.95
2018-09-03T07:02:35.008Z,31.98
2018-09-03T07:03:13.062Z,32.05
2018-09-03T07:03:51.134Z,32.08
2018-09-03T07:04:29.255Z,32.13
2018-09-03T07:05:07.343Z,32.18
2018-09-03T07:05:45.206Z,32.22
2018-09-03T07:06:23.344Z,32.26
2018-09-03T07:07:01.251Z,32.32
2018-09-03T07:07:39.171Z,32.37
2018-09-03T07:08:17.904Z,32.43
2018-09-03T07:08:56.064Z,32.49
2018-09-03T07:09:34.013Z,32.54
2018-09-03T07:10:12.591Z,32.57
2018-09-03T07:10:50.579Z,32.64
2018-09-03T07:11:28.592Z,32.72
2018-09-03T07:12:06.693Z,32.79
2018-09-03T07:12:44.927Z,32.85
2018-09-03T07:13:22.965Z,32.92
2018-09-03T07:14:01.118Z,32.95
2018-09-03T07:14:52.708Z,33.01
2018-09-03T07:15:30.604Z,33.11
2018-09-03T07:16:08.609Z,33.19
2018-09-03T07:16:46.630Z,33.27
2018-09-03T07:17:24.732Z,33.34
2018-09-03T07:18:03.206Z,33.39
2018-09-03T07:18:41.293Z,33.47
2018-09-03T07:19:19.412Z,33.53
2018-09-03T07:19:57.376Z,33.58
2018-09-03T07:20:35.485Z,33.63
2018-09-03T07:21:13.435Z,33.69
2018-09-03T07:21:51.395Z,33.73
2018-09-03T07:22:29.687Z,33.75
2018-09-03T07:23:07.805Z,33.79
2018-09-03T07:23:45.767Z,33.83
2018-09-03T07:24:23.803Z,33.82
2018-09-03T07:25:02.266Z,33.76
2018-09-03T07:25:40.225Z,33.70
2018-09-03T07:26:18.351Z,33.73
2018-09-03T07:26:56.591Z,33.71
2018-09-03T07:27:34.582Z,33.68
2018-09-03T07:28:12.588Z,33.67
2018-09-03T07:28:50.595Z,33.65
2018-09-03T07:29:29.601Z,33.69
2018-09-03T07:30:07.637Z,33.71
2018-09-03T07:30:46.042Z,33.74
2018-09-03T07:31:24.280Z,33.79
2018-09-03T07:32:02.188Z,33.76
2018-09-03T07:32:40.132Z,33.82
2018-09-03T07:33:18.151Z,33.84
2018-09-03T07:33:56.178Z,33.88
2018-09-03T07:34:34.204Z,33.87
2018-09-03T07:35:12.240Z,33.79
2018-09-03T07:35:50.273Z,33.84
2018-09-03T07:36:28.258Z,33.76
2018-09-03T07:37:06.255Z,33.71
2018-09-03T07:37:44.219Z,33.61
2018-09-03T07:38:22.242Z,33.63
2018-09-03T07:39:00.340Z,33.63
2018-09-03T07:39:38.288Z,33.63
2018-09-03T07:40:16.603Z,33.64
2018-09-03T07:40:54.652Z,33.62
2018-09-03T07:41:32.748Z,33.60
2018-09-03T07:42:10.772Z,33.59
2018-09-03T07:42:48.773Z,33.58
2018-09-03T07:43:26.865Z,33.58
2018-09-03T07:44:04.839Z,33.53
2018-09-03T07:44:48.513Z,33.52
2018-09-03T07:45:26.520Z,33.52
2018-09-03T07:46:04.519Z,33.44
2018-09-03T07:46:42.503Z,33.38
2018-09-03T07:47:20.377Z,33.36
2018-09-03T07:47:58.290Z,33.32
2018-09-03T07:48:36.300Z,33.27
2018-09-03T07:49:16.040Z,33.23
2018-09-03T07:49:54.042Z,33.18
2018-09-03T07:50:32.168Z,33.12
2018-09-03T07:51:10.434Z,33.09
2018-09-03T07:51:48.537Z,33.03
2018-09-03T07:52:26.740Z,33.02
2018-09-03T07:53:04.799Z,33.02
2018-09-03T07:53:43.051Z,32.94
2018-09-03T07:54:20.978Z,32.93
2018-09-03T07:54:58.951Z,32.86
2018-09-03T07:55:37.027Z,32.85
2018-09-03T07:56:15.115Z,32.82
2018-09-03T07:56:53.168Z,32.79
2018-09-03T07:57:32.427Z,32.72
2018-09-03T07:58:11.511Z,32.66
2018-09-03T07:58:49.765Z,32.62
2018-09-03T07:59:27.893Z,32.61
2018-09-03T08:00:06.295Z,32.56
2018-09-03T08:00:44.321Z,32.55
2018-09-03T08:01:22.323Z,32.55
2018-09-03T08:02:01.361Z,32.57
2018-09-03T08:02:39.316Z,32.56
2018-09-03T08:03:17.367Z,32.52
2018-09-03T08:03:55.316Z,32.48
2018-09-03T08:04:33.281Z,32.50
2018-09-03T08:05:11.544Z,32.46
2018-09-03T08:05:49.536Z,32.36
2018-09-03T08:06:27.522Z,32.36
2018-09-03T08:07:05.716Z,32.31
2018-09-03T08:07:43.838Z,32.28
2018-09-03T08:08:21.849Z,32.18
2018-09-03T08:08:59.944Z,32.16
2018-09-03T08:09:38.205Z,32.09
2018-09-03T08:10:16.240Z,32.09
2018-09-03T08:10:54.153Z,32.10
2018-09-03T08:11:32.152Z,32.11
2018-09-03T08:12:10.276Z,32.15
2018-09-03T08:12:48.344Z,32.11
2018-09-03T08:13:30.437Z,32.06
2018-09-03T08:14:08.516Z,32.01
2018-09-03T08:14:46.464Z,31.98
2018-09-03T08:15:24.556Z,31.87
2018-09-03T08:16:02.538Z,31.88
2018-09-03T08:16:40.944Z,31.89
2018-09-03T08:17:18.934Z,31.90
2018-09-03T08:17:56.900Z,31.87
2018-09-03T08:18:34.943Z,31.85
2018-09-03T08:19:12.856Z,31.85
2018-09-03T08:19:52.127Z,31.82
2018-09-03T08:20:30.117Z,31.75
2018-09-03T08:21:08.274Z,31.75